createdAt,value
2018-02-27T00:00:55.411Z,-6.02
2018-02-27T00:01:55.830Z,-5.98
2018-02-27T00:02:55.403Z,-5.99
2018-02-27T00:03:55.398Z,-6.04
2018-02-27T00:04:55.413Z,-6.04
2018-02-27T00:05:55.276Z,-6.09
2018-02-27T00:06:55.786Z,-6.04
2018-02-27T00:07:55.423Z,-6.01
2018-02-27T00:08:55.416Z,-5.98
2018-02-27T00:09:55.305Z,-6.01
2018-02-27T00:10:55.431Z,-6.02
2018-02-27T00:11:55.910Z,-6.06
2018-02-27T00:12:55.450Z,-5.99
2018-02-27T00:13:55.450Z,-5.99
2018-02-27T00:14:55.314Z,-5.95
2018-02-27T00:15:55.298Z,-5.97
2018-02-27T00:16:55.304Z,-5.93
2018-02-27T00:17:55.322Z,-6.01
2018-02-27T00:18:55.317Z,-6.04
2018-02-27T00:19:55.310Z,-6.08
2018-02-27T00:20:55.324Z,-6.08
2018-02-27T00:21:55.775Z,-6.05
2018-02-27T00:22:55.328Z,-6.08
2018-02-27T00:23:55.338Z,-6.04
2018-02-27T00:24:55.338Z,-6.06
2018-02-27T00:25:55.332Z,-6.12
2018-02-27T00:26:55.362Z,-6.15
2018-02-27T00:27:55.334Z,-6.15
2018-02-27T00:28:55.468Z,-6.15
2018-02-27T00:29:55.391Z,-6.13
2018-02-27T00:30:55.338Z,-6.13
2018-02-27T00:31:55.844Z,-6.15
2018-02-27T00:32:55.334Z,-6.16
2018-02-27T00:33:55.346Z,-6.18
2018-02-27T00:34:55.366Z,-6.25
2018-02-27T00:35:55.341Z,-6.23
2018-02-27T00:36:55.368Z,-6.21
2018-02-27T00:37:55.368Z,-6.22
2018-02-27T00:38:55.373Z,-6.23
2018-02-27T00:39:55.364Z,-6.25
2018-02-27T00:40:55.373Z,-6.19
2018-02-27T00:41:55.942Z,-6.19
2018-02-27T00:42:55.405Z,-6.16
2018-02-27T00:43:55.376Z,-6.19
2018-02-27T00:44:55.366Z,-6.19
2018-02-27T00:45:55.377Z,-6.23
2018-02-27T00:46:55.372Z,-6.27
2018-02-27T00:47:55.371Z,-6.29
2018-02-27T00:48:55.605Z,-6.37
2018-02-27T00:49:55.391Z,-6.34
2018-02-27T00:50:55.553Z,-6.32
2018-02-27T00:51:55.563Z,-6.27
2018-02-27T00:52:55.568Z,-6.26
2018-02-27T00:53:55.569Z,-6.3
2018-02-27T00:54:55.397Z,-6.26
2018-02-27T00:55:55.588Z,-6.27
2018-02-27T00:56:55.579Z,-6.26
2018-02-27T00:57:55.571Z,-6.3
2018-02-27T00:58:55.600Z,-6.3
2018-02-27T00:59:55.425Z,-6.32
2018-02-27T01:00:55.582Z,-6.32
2018-02-27T01:01:55.589Z,-6.36
2018-02-27T01:02:55.423Z,-6.33
2018-02-27T01:03:55.578Z,-6.33
2018-02-27T01:04:55.592Z,-6.37
2018-02-27T01:05:55.587Z,-6.4
2018-02-27T01:06:55.637Z,-6.42
2018-02-27T01:07:55.427Z,-6.43
2018-02-27T01:08:55.432Z,-6.45
2018-02-27T01:09:55.466Z,-6.45
2018-02-27T01:10:55.444Z,-6.49
2018-02-27T01:11:55.452Z,-6.49
2018-02-27T01:12:55.443Z,-6.45
2018-02-27T01:13:55.462Z,-6.47
2018-02-27T01:14:55.469Z,-6.47
2018-02-27T01:15:55.458Z,-6.49
2018-02-27T01:16:55.459Z,-6.47
2018-02-27T01:17:55.450Z,-6.47
2018-02-27T01:18:55.463Z,-6.53
2018-02-27T01:19:55.469Z,-6.52
2018-02-27T01:20:55.458Z,-6.54
2018-02-27T01:21:55.519Z,-6.52
2018-02-27T01:22:55.474Z,-6.53
2018-02-27T01:23:55.480Z,-6.52
2018-02-27T01:24:55.501Z,-6.46
2018-02-27T01:25:55.625Z,-6.52
2018-02-27T01:28:55.521Z,-6.49
2018-02-27T01:29:55.494Z,-6.53
2018-02-27T01:30:55.488Z,-6.52
2018-02-27T01:31:55.501Z,-6.6
2018-02-27T01:32:55.509Z,-6.57
2018-02-27T01:33:55.509Z,-6.61
2018-02-27T01:34:55.506Z,-6.6
2018-02-27T01:35:55.504Z,-6.53
2018-02-27T01:36:55.511Z,-6.54
2018-02-27T01:37:55.527Z,-6.56
2018-02-27T01:38:55.560Z,-6.52
2018-02-27T01:39:55.528Z,-6.53
2018-02-27T01:40:55.524Z,-6.53
2018-02-27T01:41:55.534Z,-6.52
2018-02-27T01:42:55.527Z,-6.52
2018-02-27T01:43:55.526Z,-6.58
2018-02-27T01:44:55.532Z,-6.56
2018-02-27T01:45:55.552Z,-6.6
2018-02-27T01:46:55.551Z,-6.61
2018-02-27T01:47:55.561Z,-6.61
2018-02-27T01:48:55.560Z,-6.6
2018-02-27T01:49:55.584Z,-6.58
2018-02-27T01:50:55.616Z,-6.6
2018-02-27T01:51:55.574Z,-6.6
2018-02-27T01:52:55.563Z,-6.61
2018-02-27T01:53:55.935Z,-6.71
2018-02-27T01:54:55.579Z,-6.71
2018-02-27T01:55:55.595Z,-6.7
2018-02-27T01:56:55.578Z,-6.68
2018-02-27T01:57:55.587Z,-6.67
2018-02-27T01:58:55.610Z,-6.7
2018-02-27T01:59:55.594Z,-6.68
2018-02-27T02:00:55.599Z,-6.67
2018-02-27T02:01:55.758Z,-6.68
2018-02-27T02:02:55.759Z,-6.68
2018-02-27T02:03:55.754Z,-6.71
2018-02-27T02:04:55.752Z,-6.71
2018-02-27T02:05:55.769Z,-6.75
2018-02-27T02:06:55.603Z,-6.73
2018-02-27T02:07:55.782Z,-6.74
2018-02-27T02:08:55.775Z,-6.78
2018-02-27T02:09:55.762Z,-6.75
2018-02-27T02:10:55.782Z,-6.75
2018-02-27T02:11:55.795Z,-6.77
2018-02-27T02:12:55.843Z,-6.8
2018-02-27T02:13:55.792Z,-6.77
2018-02-27T02:14:55.799Z,-6.77
2018-02-27T02:15:55.784Z,-6.82
2018-02-27T02:16:55.807Z,-6.81
2018-02-27T02:17:55.805Z,-6.82
2018-02-27T02:18:55.789Z,-6.84
2018-02-27T02:19:57.907Z,-6.85
2018-02-27T02:20:56.771Z,-6.84
2018-02-27T02:21:58.007Z,-6.84
2018-02-27T02:22:55.804Z,-6.84
2018-02-27T02:23:55.807Z,-6.84
2018-02-27T02:24:55.848Z,-6.84
2018-02-27T02:25:55.825Z,-6.81
2018-02-27T02:26:55.838Z,-6.82
2018-02-27T02:27:55.668Z,-6.84
2018-02-27T02:28:55.824Z,-6.87
2018-02-27T02:29:55.860Z,-6.84
2018-02-27T02:30:55.842Z,-6.82
2018-02-27T02:31:56.227Z,-6.92
2018-02-27T02:32:55.838Z,-6.88
2018-02-27T02:33:55.833Z,-6.89
2018-02-27T02:34:55.833Z,-6.95
2018-02-27T02:35:55.848Z,-6.94
2018-02-27T02:36:55.847Z,-6.96
2018-02-27T02:37:55.698Z,-6.95
2018-02-27T02:40:01.884Z,-6.95
2018-02-27T02:40:55.690Z,-6.96
2018-02-27T02:41:55.708Z,-6.95
2018-02-27T02:42:55.729Z,-6.96
2018-02-27T02:43:55.716Z,-6.96
2018-02-27T02:44:55.709Z,-6.91
2018-02-27T02:45:55.717Z,-6.91
2018-02-27T02:46:55.719Z,-7.01
2018-02-27T02:47:55.736Z,-6.99
2018-02-27T02:48:55.715Z,-6.95
2018-02-27T02:49:55.744Z,-6.99
2018-02-27T02:50:55.722Z,-6.96
2018-02-27T02:51:55.729Z,-6.95
2018-02-27T02:52:55.745Z,-6.92
2018-02-27T02:53:55.737Z,-6.96
2018-02-27T02:54:55.729Z,-6.98
2018-02-27T02:55:55.746Z,-6.98
2018-02-27T02:56:55.735Z,-7.01
2018-02-27T02:57:55.742Z,-6.96
2018-02-27T02:58:55.739Z,-6.98
2018-02-27T02:59:55.745Z,-6.98
2018-02-27T03:00:55.750Z,-6.96
2018-02-27T03:01:55.787Z,-6.91
2018-02-27T03:02:55.760Z,-6.92
2018-02-27T03:03:55.753Z,-6.91
2018-02-27T03:04:55.756Z,-6.89
2018-02-27T03:05:55.764Z,-6.89
2018-02-27T03:06:55.833Z,-6.96
2018-02-27T03:07:55.763Z,-6.96
2018-02-27T03:08:55.921Z,-6.96
2018-02-27T03:09:55.772Z,-7.04
2018-02-27T03:10:55.774Z,-7.02
2018-02-27T03:11:55.779Z,-7.04
2018-02-27T03:12:55.927Z,-7.01
2018-02-27T03:13:55.941Z,-6.98
2018-02-27T03:14:55.942Z,-6.91
2018-02-27T03:15:55.943Z,-6.89
2018-02-27T03:16:55.949Z,-6.89
2018-02-27T03:17:55.986Z,-6.88
2018-02-27T03:18:55.971Z,-6.92
2018-02-27T03:19:55.970Z,-6.88
2018-02-27T03:20:55.971Z,-6.89
2018-02-27T03:21:55.982Z,-6.89
2018-02-27T03:22:56.000Z,-6.87
2018-02-27T03:23:55.984Z,-6.91
2018-02-27T03:24:56.004Z,-6.92
2018-02-27T03:25:55.997Z,-6.85
2018-02-27T03:26:55.984Z,-6.85
2018-02-27T03:27:55.999Z,-6.91
2018-02-27T03:28:55.868Z,-6.89
2018-02-27T03:29:56.037Z,-6.88
2018-02-27T03:30:56.016Z,-6.91
2018-02-27T03:31:55.857Z,-6.87
2018-02-27T03:32:56.009Z,-6.89
2018-02-27T03:33:56.030Z,-6.94
2018-02-27T03:34:56.008Z,-6.92
2018-02-27T03:35:56.008Z,-6.98
2018-02-27T03:36:56.021Z,-7.02
2018-02-27T03:37:56.005Z,-7.04
2018-02-27T03:38:56.016Z,-7.08
2018-02-27T03:39:56.012Z,-7.11
2018-02-27T03:40:56.010Z,-7.09
2018-02-27T03:41:56.015Z,-7.06
2018-02-27T03:42:56.024Z,-7.02
2018-02-27T03:43:56.088Z,-7.05
2018-02-27T03:44:56.044Z,-7.09
2018-02-27T03:45:55.883Z,-7.09
2018-02-27T03:46:56.048Z,-7.11
2018-02-27T03:47:56.046Z,-7.12
2018-02-27T03:48:55.903Z,-7.11
2018-02-27T03:49:56.058Z,-7.08
2018-02-27T03:50:55.909Z,-7.13
2018-02-27T03:51:55.900Z,-7.16
2018-02-27T03:52:55.920Z,-7.17
2018-02-27T03:53:55.925Z,-7.16
2018-02-27T03:54:55.918Z,-7.17
2018-02-27T03:55:55.921Z,-7.17
2018-02-27T03:56:55.932Z,-7.17
2018-02-27T03:57:55.929Z,-7.11
2018-02-27T03:58:55.941Z,-7.15
2018-02-27T03:59:55.932Z,-7.16
2018-02-27T04:00:55.943Z,-7.12
2018-02-27T04:01:56.051Z,-7.13
2018-02-27T04:02:55.961Z,-7.13
2018-02-27T04:05:02.181Z,-7.2
2018-02-27T04:05:55.963Z,-7.19
2018-02-27T04:06:55.966Z,-7.23
2018-02-27T04:07:55.986Z,-7.19
2018-02-27T04:08:55.971Z,-7.17
2018-02-27T04:09:55.971Z,-7.2
2018-02-27T04:10:56.138Z,-7.23
2018-02-27T04:11:55.981Z,-7.2
2018-02-27T04:13:56.115Z,-7.29
2018-02-27T04:14:55.982Z,-7.27
2018-02-27T04:15:55.979Z,-7.26
2018-02-27T04:16:55.987Z,-7.27
2018-02-27T04:17:56.007Z,-7.23
2018-02-27T04:18:55.996Z,-7.24
2018-02-27T04:19:56.003Z,-7.26
2018-02-27T04:20:56.000Z,-7.27
2018-02-27T04:21:56.008Z,-7.29
2018-02-27T04:24:16.779Z,-7.29
2018-02-27T04:24:56.169Z,-7.32
2018-02-27T04:25:56.176Z,-7.27
2018-02-27T04:26:56.179Z,-7.32
2018-02-27T04:27:56.172Z,-7.3
2018-02-27T04:28:56.183Z,-7.32
2018-02-27T04:29:56.184Z,-7.36
2018-02-27T04:30:56.184Z,-7.36
2018-02-27T04:31:56.188Z,-7.36
2018-02-27T04:32:56.204Z,-7.36
2018-02-27T04:33:56.210Z,-7.41
2018-02-27T04:34:56.204Z,-7.39
2018-02-27T04:35:56.042Z,-7.37
2018-02-27T04:36:56.220Z,-7.36
2018-02-27T04:37:56.211Z,-7.4
2018-02-27T04:38:56.216Z,-7.37
2018-02-27T04:39:56.060Z,-7.34
2018-02-27T04:40:56.215Z,-7.34
2018-02-27T04:41:56.243Z,-7.3
2018-02-27T04:42:56.066Z,-7.32
2018-02-27T04:43:56.066Z,-7.34
2018-02-27T04:44:56.319Z,-7.34
2018-02-27T04:45:56.085Z,-7.39
2018-02-27T04:46:56.111Z,-7.39
2018-02-27T04:47:56.089Z,-7.37
2018-02-27T04:48:56.110Z,-7.33
2018-02-27T04:49:56.136Z,-7.32
2018-02-27T04:52:02.376Z,-7.36
2018-02-27T04:52:56.364Z,-7.36
2018-02-27T04:53:56.145Z,-7.36
2018-02-27T04:54:56.109Z,-7.34
2018-02-27T04:55:56.110Z,-7.34
2018-02-27T04:56:56.109Z,-7.32
2018-02-27T04:57:56.104Z,-7.27
2018-02-27T04:58:56.110Z,-7.23
2018-02-27T04:59:56.133Z,-7.23
2018-02-27T05:00:56.123Z,-7.22
2018-02-27T05:01:56.133Z,-7.27
2018-02-27T05:02:56.130Z,-7.26
2018-02-27T05:03:56.131Z,-7.26
2018-02-27T05:04:56.155Z,-7.23
2018-02-27T05:05:56.143Z,-7.24
2018-02-27T05:06:56.150Z,-7.23
2018-02-27T05:07:56.171Z,-7.2
2018-02-27T05:08:56.145Z,-7.17
2018-02-27T05:09:56.147Z,-7.12
2018-02-27T05:10:56.143Z,-7.11
2018-02-27T05:11:56.149Z,-7.08
2018-02-27T05:12:56.181Z,-7.05
2018-02-27T05:13:56.162Z,-7.02
2018-02-27T05:14:56.323Z,-7.02
2018-02-27T05:15:56.158Z,-7.04
2018-02-27T05:16:56.151Z,-6.98
2018-02-27T05:17:56.376Z,-6.92
2018-02-27T05:18:56.321Z,-6.91
2018-02-27T05:19:56.159Z,-6.89
2018-02-27T05:20:56.167Z,-6.91
2018-02-27T05:21:56.214Z,-6.88
2018-02-27T05:22:56.166Z,-6.85
2018-02-27T05:23:56.417Z,-6.85
2018-02-27T05:24:56.179Z,-6.87
2018-02-27T05:25:56.430Z,-6.88
2018-02-27T05:26:56.194Z,-6.84
2018-02-27T05:27:56.350Z,-6.85
2018-02-27T05:28:56.377Z,-6.84
2018-02-27T05:29:56.206Z,-6.78
2018-02-27T05:30:56.425Z,-6.81
2018-02-27T05:31:56.208Z,-6.8
2018-02-27T05:32:56.210Z,-6.78
2018-02-27T05:33:56.396Z,-6.78
2018-02-27T05:34:56.231Z,-6.78
2018-02-27T05:35:56.223Z,-6.77
2018-02-27T05:36:56.389Z,-6.78
2018-02-27T05:37:56.373Z,-6.82
2018-02-27T05:38:56.388Z,-6.78
2018-02-27T05:39:56.390Z,-6.78
2018-02-27T05:40:56.406Z,-6.77
2018-02-27T05:41:56.418Z,-6.77
2018-02-27T05:42:56.401Z,-6.75
2018-02-27T05:43:56.398Z,-6.75
2018-02-27T05:44:56.404Z,-6.75
2018-02-27T05:45:56.438Z,-6.78
2018-02-27T05:46:56.423Z,-6.78
2018-02-27T05:47:56.402Z,-6.81
2018-02-27T05:48:56.418Z,-6.84
2018-02-27T05:49:56.433Z,-6.85
2018-02-27T05:50:56.417Z,-6.85
2018-02-27T05:51:56.425Z,-6.87
2018-02-27T05:52:56.422Z,-6.85
2018-02-27T05:53:56.445Z,-6.85
2018-02-27T05:54:56.273Z,-6.89
2018-02-27T05:55:56.281Z,-6.94
2018-02-27T05:56:56.323Z,-6.96
2018-02-27T05:57:56.301Z,-7.09
2018-02-27T05:58:56.287Z,-7.11
2018-02-27T05:59:56.380Z,-7.11
2018-02-27T06:00:56.334Z,-7.08
2018-02-27T06:01:56.465Z,-7.06
2018-02-27T06:02:56.402Z,-7.08
2018-02-27T06:03:56.316Z,-7.08
2018-02-27T06:04:56.594Z,-7.09
2018-02-27T06:05:56.324Z,-7.09
2018-02-27T06:06:56.324Z,-7.09
2018-02-27T06:07:56.356Z,-7.08
2018-02-27T06:08:56.327Z,-7.06
2018-02-27T06:09:56.409Z,-7.05
2018-02-27T06:10:56.349Z,-7.05
2018-02-27T06:11:56.362Z,-7.04
2018-02-27T06:12:56.360Z,-7.02
2018-02-27T06:13:56.366Z,-7.02
2018-02-27T06:14:56.512Z,-7.04
2018-02-27T06:15:56.399Z,-7.01
2018-02-27T06:16:56.373Z,-7.04
2018-02-27T06:17:56.365Z,-7.06
2018-02-27T06:18:56.390Z,-7.05
2018-02-27T06:19:56.365Z,-7.02
2018-02-27T06:20:56.386Z,-7.02
2018-02-27T06:21:56.382Z,-7.02
2018-02-27T06:22:56.363Z,-7.06
2018-02-27T06:23:56.370Z,-7.15
2018-02-27T06:24:56.377Z,-7.17
2018-02-27T06:25:56.375Z,-7.17
2018-02-27T06:26:56.561Z,-7.16
2018-02-27T06:27:56.542Z,-7.26
2018-02-27T06:28:56.548Z,-7.44
2018-02-27T06:29:56.410Z,-7.4
2018-02-27T06:30:56.560Z,-7.36
2018-02-27T06:31:56.566Z,-7.34
2018-02-27T06:32:56.447Z,-7.44
2018-02-27T06:33:56.416Z,-7.48
2018-02-27T06:34:56.409Z,-7.43
2018-02-27T06:35:56.409Z,-7.41
2018-02-27T06:36:56.419Z,-7.4
2018-02-27T06:37:56.425Z,-7.39
2018-02-27T06:38:56.419Z,-7.37
2018-02-27T06:39:56.430Z,-7.3
2018-02-27T06:40:56.431Z,-7.29
2018-02-27T06:41:56.601Z,-7.27
2018-02-27T06:42:56.450Z,-7.26
2018-02-27T06:43:56.442Z,-7.24
2018-02-27T06:44:56.445Z,-7.2
2018-02-27T06:45:56.436Z,-7.19
2018-02-27T06:46:56.451Z,-7.19
2018-02-27T06:47:56.612Z,-7.23
2018-02-27T06:48:56.623Z,-7.2
2018-02-27T06:49:56.625Z,-7.16
2018-02-27T06:50:56.632Z,-7.2
2018-02-27T06:51:56.464Z,-7.2
2018-02-27T06:52:56.639Z,-7.26
2018-02-27T06:53:56.639Z,-7.29
2018-02-27T06:54:56.646Z,-7.26
2018-02-27T06:55:56.693Z,-7.33
2018-02-27T06:56:56.672Z,-7.27
2018-02-27T06:57:56.654Z,-7.26
2018-02-27T06:58:56.674Z,-7.24
2018-02-27T06:59:56.673Z,-7.16
2018-02-27T07:00:56.673Z,-7.15
2018-02-27T07:01:56.671Z,-7.17
2018-02-27T07:02:56.680Z,-7.22
2018-02-27T07:03:56.675Z,-7.16
2018-02-27T07:04:56.709Z,-7.15
2018-02-27T07:05:56.528Z,-7.19
2018-02-27T07:06:56.589Z,-7.13
2018-02-27T07:07:56.537Z,-7.12
2018-02-27T07:08:56.540Z,-7.13
2018-02-27T07:09:56.688Z,-7.11
2018-02-27T07:10:56.543Z,-7.11
2018-02-27T07:11:56.539Z,-7.11
2018-02-27T07:12:56.713Z,-7.11
2018-02-27T07:13:56.699Z,-7.12
2018-02-27T07:14:56.707Z,-7.09
2018-02-27T07:15:56.549Z,-7.02
2018-02-27T07:16:56.560Z,-7.09
2018-02-27T07:17:56.592Z,-7.04
2018-02-27T07:18:56.784Z,-6.98
2018-02-27T07:19:56.727Z,-7.04
2018-02-27T07:20:56.736Z,-7.09
2018-02-27T07:21:56.729Z,-7.09
2018-02-27T07:22:56.731Z,-7.11
2018-02-27T07:23:56.578Z,-7.24
2018-02-27T07:24:56.583Z,-7.32
2018-02-27T07:25:56.595Z,-7.27
2018-02-27T07:26:56.714Z,-7.23
2018-02-27T07:27:56.785Z,-7.24
2018-02-27T07:28:56.785Z,-7.23
2018-02-27T07:29:56.597Z,-7.27
2018-02-27T07:30:56.599Z,-7.37
2018-02-27T07:31:56.603Z,-7.37
2018-02-27T07:32:56.609Z,-7.37
2018-02-27T07:33:56.784Z,-7.41
2018-02-27T07:34:56.785Z,-7.41
2018-02-27T07:35:56.767Z,-7.34
2018-02-27T07:36:56.621Z,-7.33
2018-02-27T07:37:56.631Z,-7.32
2018-02-27T07:38:56.634Z,-7.36
2018-02-27T07:39:56.717Z,-7.39
2018-02-27T07:40:56.647Z,-7.32
2018-02-27T07:41:56.667Z,-7.32
2018-02-27T07:42:56.630Z,-7.3
2018-02-27T07:43:56.644Z,-7.23
2018-02-27T07:44:56.710Z,-7.17
2018-02-27T07:45:56.640Z,-7.12
2018-02-27T07:46:56.835Z,-7.09
2018-02-27T07:47:56.805Z,-7.13
2018-02-27T07:48:56.648Z,-7.09
2018-02-27T07:49:56.641Z,-7.3
2018-02-27T07:50:56.663Z,-7.32
2018-02-27T07:51:56.679Z,-7.32
2018-02-27T07:52:56.816Z,-7.3
2018-02-27T07:53:56.687Z,-7.23
2018-02-27T07:54:56.673Z,-7.2
2018-02-27T07:55:57.124Z,-7.12
2018-02-27T07:56:56.684Z,-7.08
2018-02-27T07:57:56.676Z,-7.09
2018-02-27T07:58:56.681Z,-7.04
2018-02-27T07:59:56.838Z,-7.02
2018-02-27T08:00:56.870Z,-7.11
2018-02-27T08:01:56.840Z,-7.13
2018-02-27T08:02:56.845Z,-7.08
2018-02-27T08:03:56.974Z,-7.09
2018-02-27T08:04:56.863Z,-7.02
2018-02-27T08:05:56.870Z,-6.92
2018-02-27T08:06:56.696Z,-6.91
2018-02-27T08:07:56.879Z,-6.82
2018-02-27T08:08:56.859Z,-6.73
2018-02-27T08:09:56.883Z,-6.77
2018-02-27T08:10:56.870Z,-6.68
2018-02-27T08:11:56.709Z,-6.73
2018-02-27T08:12:56.875Z,-6.92
2018-02-27T08:13:56.877Z,-7.06
2018-02-27T08:14:56.902Z,-7.11
2018-02-27T08:15:57.296Z,-7.08
2018-02-27T08:16:56.906Z,-7.12
2018-02-27T08:17:56.907Z,-7.24
2018-02-27T08:18:56.745Z,-7.23
2018-02-27T08:19:56.902Z,-7.23
2018-02-27T08:20:56.784Z,-7.2
2018-02-27T08:21:56.922Z,-7.23
2018-02-27T08:22:56.940Z,-7.23
2018-02-27T08:23:56.907Z,-7.2
2018-02-27T08:24:56.896Z,-7.16
2018-02-27T08:25:56.926Z,-7.15
2018-02-27T08:26:56.905Z,-7.16
2018-02-27T08:27:56.903Z,-7.22
2018-02-27T08:28:56.914Z,-7.17
2018-02-27T08:29:56.969Z,-7.17
2018-02-27T08:30:56.949Z,-7.11
2018-02-27T08:31:56.924Z,-7.04
2018-02-27T08:32:56.771Z,-7.01
2018-02-27T08:33:56.923Z,-6.99
2018-02-27T08:34:56.780Z,-6.98
2018-02-27T08:35:56.761Z,-6.95
2018-02-27T08:36:56.835Z,-6.91
2018-02-27T08:37:56.785Z,-6.89
2018-02-27T08:38:56.780Z,-6.89
2018-02-27T08:39:56.786Z,-6.87
2018-02-27T08:40:56.792Z,-6.77
2018-02-27T08:41:56.988Z,-6.75
2018-02-27T08:42:56.959Z,-6.73
2018-02-27T08:43:56.964Z,-6.71
2018-02-27T08:44:56.823Z,-6.66
2018-02-27T08:45:56.822Z,-6.61
2018-02-27T08:46:56.827Z,-6.52
2018-02-27T08:47:56.804Z,-6.4
2018-02-27T08:48:56.840Z,-6.33
2018-02-27T08:49:56.818Z,-6.26
2018-02-27T08:50:57.010Z,-6.22
2018-02-27T08:51:56.829Z,-6.21
2018-02-27T08:52:56.856Z,-6.27
2018-02-27T08:53:56.828Z,-6.22
2018-02-27T08:54:57.017Z,-6.25
2018-02-27T08:55:57.022Z,-6.21
2018-02-27T08:56:56.836Z,-6.13
2018-02-27T08:57:56.993Z,-6.01
2018-02-27T08:58:56.834Z,-5.95
2018-02-27T08:59:56.841Z,-5.95
2018-02-27T09:00:56.846Z,-5.9
2018-02-27T09:01:56.835Z,-5.95
2018-02-27T09:02:56.845Z,-5.93
2018-02-27T09:03:56.852Z,-5.87
2018-02-27T09:04:56.861Z,-5.81
2018-02-27T09:05:56.857Z,-5.77
2018-02-27T09:06:56.864Z,-5.76
2018-02-27T09:07:56.873Z,-5.81
2018-02-27T09:08:56.877Z,-5.81
2018-02-27T09:09:56.878Z,-5.78
2018-02-27T09:10:56.900Z,-5.84
2018-02-27T09:11:57.044Z,-5.93
2018-02-27T09:12:57.041Z,-6.02
2018-02-27T09:13:57.046Z,-5.94
2018-02-27T09:14:57.044Z,-5.91
2018-02-27T09:15:57.051Z,-5.97
2018-02-27T09:16:56.892Z,-5.99
2018-02-27T09:17:57.044Z,-5.95
2018-02-27T09:18:57.041Z,-5.91
2018-02-27T09:19:57.064Z,-5.97
2018-02-27T09:20:56.891Z,-5.91
2018-02-27T09:21:57.060Z,-5.81
2018-02-27T09:22:57.072Z,-5.71
2018-02-27T09:23:57.076Z,-5.78
2018-02-27T09:24:57.104Z,-5.78
2018-02-27T09:25:57.088Z,-5.81
2018-02-27T09:26:57.072Z,-5.9
2018-02-27T09:27:57.071Z,-5.93
2018-02-27T09:28:57.080Z,-5.97
2018-02-27T09:29:57.386Z,-5.98
2018-02-27T09:30:57.084Z,-5.91
2018-02-27T09:31:57.090Z,-5.94
2018-02-27T09:32:57.089Z,-6.01
2018-02-27T09:33:57.093Z,-5.85
2018-02-27T09:34:57.244Z,-5.87
2018-02-27T09:35:57.102Z,-5.76
2018-02-27T09:36:57.108Z,-5.73
2018-02-27T09:37:57.109Z,-5.68
2018-02-27T09:38:57.123Z,-5.64
2018-02-27T09:39:57.137Z,-5.6
2018-02-27T09:40:57.123Z,-5.62
2018-02-27T09:41:57.114Z,-5.5
2018-02-27T09:42:57.154Z,-5.45
2018-02-27T09:43:57.129Z,-5.43
2018-02-27T09:44:57.146Z,-5.42
2018-02-27T09:45:57.123Z,-5.48
2018-02-27T09:46:57.025Z,-5.46
2018-02-27T09:47:56.977Z,-5.46
2018-02-27T09:48:56.984Z,-5.43
2018-02-27T09:49:56.990Z,-5.52
2018-02-27T09:50:56.997Z,-5.48
2018-02-27T09:51:56.999Z,-5.42
2018-02-27T09:52:56.992Z,-5.39
2018-02-27T09:53:57.153Z,-5.31
2018-02-27T09:54:57.172Z,-5.24
2018-02-27T09:55:57.095Z,-5.18
2018-02-27T09:56:57.011Z,-5.15
2018-02-27T09:57:57.066Z,-5.07
2018-02-27T09:58:57.015Z,-5.04
2018-02-27T09:59:57.033Z,-5
2018-02-27T10:00:57.025Z,-5.05
2018-02-27T10:01:57.028Z,-5.04
2018-02-27T10:02:57.051Z,-4.97
2018-02-27T10:03:57.032Z,-4.98
2018-02-27T10:04:57.066Z,-4.98
2018-02-27T10:05:57.039Z,-5.28
2018-02-27T10:06:57.039Z,-5.32
2018-02-27T10:07:57.048Z,-5.15
2018-02-27T10:08:57.055Z,-5.05
2018-02-27T10:09:57.104Z,-5.03
2018-02-27T10:10:57.063Z,-5.01
2018-02-27T10:11:57.074Z,-4.94
2018-02-27T10:12:57.067Z,-4.9
2018-02-27T10:13:57.073Z,-4.8
2018-02-27T10:16:57.171Z,-4.59
2018-02-27T10:17:57.090Z,-4.63
2018-02-27T10:18:57.098Z,-4.66
2018-02-27T10:19:57.138Z,-4.53
2018-02-27T10:20:57.111Z,-4.48
2018-02-27T10:21:57.101Z,-4.49
2018-02-27T10:22:57.266Z,-4.44
2018-02-27T10:25:03.479Z,-5.03
2018-02-27T10:25:57.266Z,-5.28
2018-02-27T10:26:57.275Z,-5.36
2018-02-27T10:27:57.276Z,-5.21
2018-02-27T10:28:57.294Z,-5.1
2018-02-27T10:29:57.314Z,-4.95
2018-02-27T10:30:57.306Z,-4.81
2018-02-27T10:31:57.174Z,-4.7
2018-02-27T10:32:57.324Z,-4.62
2018-02-27T10:33:57.299Z,-4.7
2018-02-27T10:34:57.602Z,-4.72
2018-02-27T10:35:57.438Z,-4.6
2018-02-27T10:36:57.309Z,-4.52
2018-02-27T10:37:57.302Z,-4.48
2018-02-27T10:38:57.149Z,-4.44
2018-02-27T10:39:57.357Z,-4.38
2018-02-27T10:40:57.162Z,-4.32
2018-02-27T10:41:57.177Z,-4.22
2018-02-27T10:42:57.160Z,-4.17
2018-02-27T10:43:57.166Z,-4.25
2018-02-27T10:44:57.170Z,-4.29
2018-02-27T10:45:57.216Z,-4.2
2018-02-27T10:46:57.183Z,-4.15
2018-02-27T10:47:57.193Z,-4.14
2018-02-27T10:48:57.351Z,-4.17
2018-02-27T10:49:57.339Z,-4.15
2018-02-27T10:50:57.216Z,-4.11
2018-02-27T10:51:57.207Z,-4.13
2018-02-27T10:52:57.208Z,-4.06
2018-02-27T10:53:57.205Z,-4.07
2018-02-27T10:54:57.308Z,-4.06
2018-02-27T10:55:57.198Z,-3.92
2018-02-27T10:56:57.237Z,-3.96
2018-02-27T10:57:57.225Z,-3.96
2018-02-27T10:58:57.232Z,-3.93
2018-02-27T10:59:57.229Z,-4.35
2018-02-27T11:00:57.216Z,-4.32
2018-02-27T11:01:57.255Z,-4.2
2018-02-27T11:02:57.223Z,-4.18
2018-02-27T11:03:57.215Z,-4.03
2018-02-27T11:04:57.226Z,-3.96
2018-02-27T11:05:57.230Z,-3.89
2018-02-27T11:06:57.239Z,-3.97
2018-02-27T11:07:57.247Z,-4
2018-02-27T11:08:57.230Z,-3.9
2018-02-27T11:11:03.472Z,-3.97
2018-02-27T11:11:57.263Z,-3.87
2018-02-27T11:12:57.283Z,-4.07
2018-02-27T11:13:57.397Z,-3.99
2018-02-27T11:14:57.284Z,-3.97
2018-02-27T11:15:57.517Z,-3.94
2018-02-27T11:16:57.360Z,-3.82
2018-02-27T11:17:57.260Z,-3.75
2018-02-27T11:18:57.269Z,-3.73
2018-02-27T11:19:57.463Z,-3.73
2018-02-27T11:20:57.278Z,-3.66
2018-02-27T11:21:57.314Z,-3.66
2018-02-27T11:22:57.281Z,-3.72
2018-02-27T11:23:57.312Z,-3.66
2018-02-27T11:24:57.444Z,-4.01
2018-02-27T11:25:57.297Z,-4.01
2018-02-27T11:26:57.303Z,-4.04
2018-02-27T11:27:57.306Z,-4.2
2018-02-27T11:28:57.321Z,-4.13
2018-02-27T11:29:57.313Z,-3.89
2018-02-27T11:30:57.335Z,-3.75
2018-02-27T11:31:57.337Z,-3.6
2018-02-27T11:32:57.351Z,-3.52
2018-02-27T11:33:57.331Z,-3.47
2018-02-27T11:34:57.344Z,-3.49
2018-02-27T11:35:57.493Z,-3.32
2018-02-27T11:36:57.518Z,-3.34
2018-02-27T11:37:57.508Z,-3.19
2018-02-27T11:38:57.582Z,-3.14
2018-02-27T11:39:57.338Z,-3.13
2018-02-27T11:40:57.510Z,-3.23
2018-02-27T11:41:57.390Z,-3.16
2018-02-27T11:42:57.512Z,-3.13
2018-02-27T11:43:57.349Z,-3.06
2018-02-27T11:44:57.514Z,-3.02
2018-02-27T11:45:57.510Z,-3.2
2018-02-27T11:46:57.552Z,-3.34
2018-02-27T11:47:57.536Z,-3.31
2018-02-27T11:48:57.534Z,-3.19
2018-02-27T11:49:57.548Z,-3.13
2018-02-27T11:50:57.540Z,-3.1
2018-02-27T11:51:57.396Z,-2.97
2018-02-27T11:52:57.403Z,-2.9
2018-02-27T11:53:57.419Z,-2.83
2018-02-27T11:54:57.417Z,-2.81
2018-02-27T11:55:57.410Z,-2.78
2018-02-27T11:56:57.410Z,-2.72
2018-02-27T11:57:57.423Z,-2.65
2018-02-27T11:58:57.418Z,-2.62
2018-02-27T11:59:57.420Z,-2.65
2018-02-27T12:00:57.412Z,-2.64
2018-02-27T12:01:57.426Z,-2.78
2018-02-27T12:02:57.425Z,-2.76
2018-02-27T12:03:57.434Z,-2.76
2018-02-27T12:04:57.435Z,-2.75
2018-02-27T12:05:57.437Z,-2.85
2018-02-27T12:06:57.436Z,-2.94
2018-02-27T12:07:57.465Z,-2.88
2018-02-27T12:08:57.442Z,-2.71
2018-02-27T12:09:57.449Z,-2.75
2018-02-27T12:10:57.455Z,-2.71
2018-02-27T12:11:57.435Z,-2.61
2018-02-27T12:12:57.448Z,-2.55
2018-02-27T12:13:57.455Z,-2.68
2018-02-27T12:14:57.463Z,-2.64
2018-02-27T12:15:57.459Z,-2.53
2018-02-27T12:16:57.467Z,-2.5
2018-02-27T12:17:57.473Z,-2.48
2018-02-27T12:18:57.473Z,-2.44
2018-02-27T12:19:57.497Z,-2.68
2018-02-27T12:20:57.504Z,-2.69
2018-02-27T12:21:57.515Z,-2.55
2018-02-27T12:22:57.507Z,-2.47
2018-02-27T12:23:57.549Z,-2.66
2018-02-27T12:24:57.533Z,-2.58
2018-02-27T12:25:57.522Z,-2.55
2018-02-27T12:26:57.527Z,-2.38
2018-02-27T12:27:57.507Z,-2.3
2018-02-27T12:28:57.512Z,-2.26
2018-02-27T12:29:57.530Z,-2.21
2018-02-27T12:30:57.507Z,-2.33
2018-02-27T12:31:57.532Z,-2.3
2018-02-27T12:32:57.507Z,-2.2
2018-02-27T12:33:57.508Z,-2.19
2018-02-27T12:34:57.515Z,-2.16
2018-02-27T12:35:57.680Z,-2.09
2018-02-27T12:36:57.548Z,-2.07
2018-02-27T12:37:57.516Z,-2.06
2018-02-27T12:38:57.527Z,-2.02
2018-02-27T12:39:57.541Z,-2.07
2018-02-27T12:40:57.540Z,-2.16
2018-02-27T12:41:57.674Z,-2.14
2018-02-27T12:42:57.537Z,-2.13
2018-02-27T12:43:57.540Z,-2.13
2018-02-27T12:44:57.552Z,-2.3
2018-02-27T12:45:57.699Z,-2.5
2018-02-27T12:46:57.701Z,-2.41
2018-02-27T12:47:57.733Z,-2.4
2018-02-27T12:48:57.699Z,-2.55
2018-02-27T12:49:57.704Z,-2.61
2018-02-27T12:50:57.564Z,-2.57
2018-02-27T12:51:57.717Z,-2.5
2018-02-27T12:52:57.602Z,-2.38
2018-02-27T12:53:57.738Z,-2.43
2018-02-27T12:54:57.726Z,-2.72
2018-02-27T12:55:57.564Z,-2.76
2018-02-27T12:56:57.583Z,-2.61
2018-02-27T12:57:57.763Z,-2.57
2018-02-27T12:58:57.763Z,-2.43
2018-02-27T12:59:57.570Z,-2.36
2018-02-27T13:00:57.738Z,-2.28
2018-02-27T13:01:57.748Z,-2.36
2018-02-27T13:02:57.600Z,-2.3
2018-02-27T13:03:57.781Z,-2.24
2018-02-27T13:04:57.944Z,-2.2
2018-02-27T13:05:57.763Z,-2.09